METAR Data

Data at: 1050 UTC 21 Apr 2021

METAR for:KUUU (Newport State Arpt, RI, US)
Text:KUUU 210953Z AUTO 18007KT 10SM CLR 09/08 A2985 RMK AO2 SLP106 T00940078
Temperature: 9.4°C ( 49°F)
Dewpoint: 7.8°C ( 46°F) [RH = 90%]
Pressure (altimeter):29.85 inches Hg (1010.9 mb) [Sea level pressure: 1010.6 mb]
Winds:from the S (180 degrees) at 8 MPH (7 knots; 3.6 m/s)
Visibility:10 or more sm (16+ km)
Ceiling:at least 12,000 feet AGL
Clouds:sky clear below 12,000 feet AGL
QC Flag:automated observation with no human augmentation